Time;durP1;ratioP1;P1;durP2;ratioP2;P2;SDS_P1;SDS_P2;PMS_P1;PMS_P2;Temp;Humidity;BMP_temperature;BMP_pressure;BME280_temperature;BME280_humidity;BME280_pressure;Samples;Min_cycle;Max_cycle;Signal;HPM_P1;HPM_P2
2023/07/07 00:00:21;;;;;;;9.85;4.82;;;;;;;;;;5042104;28;20048;-87
2023/07/07 00:02:55;;;;;;;7.75;4.28;;;;;;;;;;5059842;28;20037;-87
2023/07/07 00:05:23;;;;;;;8.70;4.15;;;;;;;;;;5016648;28;20043;-87
2023/07/07 00:07:57;;;;;;;7.80;4.10;;;;;;;;;;5017884;28;20025;-88
2023/07/07 00:10:24;;;;;;;9.90;4.38;;;;;;;;;;5053364;28;20050;-87
2023/07/07 00:12:52;;;;;;;8.98;3.85;;;;;;;;;;5030033;28;20095;-87
2023/07/07 00:15:20;;;;;;;7.10;4.70;;;;;;;;;;5033715;28;20540;-87
2023/07/07 00:17:53;;;;;;;7.47;4.78;;;;;;;;;;5024096;28;20024;-87
2023/07/07 00:20:21;;;;;;;10.38;4.53;;;;;;;;;;5050837;28;20057;-87
2023/07/07 00:22:48;;;;;;;8.52;4.75;;;;;;;;;;5047590;28;20052;-87
2023/07/07 00:25:14;;;;;;;10.82;4.70;;;;;;;;;;5029449;28;20071;-87
2023/07/07 00:27:51;;;;;;;11.93;4.78;;;;;;;;;;5036441;28;20040;-87
2023/07/07 00:30:18;;;;;;;15.27;4.95;;;;;;;;;;5029946;28;20523;-88
2023/07/07 00:32:44;;;;;;;16.80;4.97;;;;;;;;;;5022435;28;20025;-88
2023/07/07 00:35:14;;;;;;;26.88;5.18;;;;;;;;;;5019314;28;20072;-87
2023/07/07 00:37:41;;;;;;;8.75;4.63;;;;;;;;;;5026921;28;20078;-87
2023/07/07 00:40:09;;;;;;;11.07;4.93;;;;;;;;;;5039924;28;20036;-87
2023/07/07 00:42:38;;;;;;;13.00;4.95;;;;;;;;;;5020992;28;20033;-87
2023/07/07 00:45:40;;;;;;;8.43;5.05;;;;;;;;;;5022849;28;20132;-88
2023/07/07 00:48:29;;;;;;;6.72;4.07;;;;;;;;;;4964941;28;20105;-87
2023/07/07 00:51:17;;;;;;;11.43;4.82;;;;;;;;;;5012182;28;20037;-87
2023/07/07 00:53:47;;;;;;;7.70;4.80;;;;;;;;;;5005938;28;20052;-86
2023/07/07 00:56:23;;;;;;;12.48;5.10;;;;;;;;;;5044806;28;20375;-87
2023/07/07 00:58:54;;;;;;;8.90;4.80;;;;;;;;;;5040212;28;20021;-87
2023/07/07 01:01:21;;;;;;;10.00;5.32;;;;;;;;;;5040218;28;20296;-87
2023/07/07 01:03:54;;;;;;;8.23;5.57;;;;;;;;;;5053028;28;20204;-87
2023/07/07 01:06:30;;;;;;;13.70;5.15;;;;;;;;;;5057746;28;20362;-87
2023/07/07 01:08:56;;;;;;;;;;;;;;;;;;5056344;28;20533;-87
2023/07/07 01:11:22;;;;;;;10.30;4.88;;;;;;;;;;5057934;28;20007;-88
2023/07/07 01:13:48;;;;;;;9.82;5.35;;;;;;;;;;5043311;28;20037;-88
2023/07/07 01:16:26;;;;;;;11.07;6.07;;;;;;;;;;5060021;28;20086;-87
2023/07/07 01:19:15;;;;;;;13.38;6.97;;;;;;;;;;5059950;28;20077;-89
2023/07/07 01:21:48;;;;;;;11.07;5.47;;;;;;;;;;5075221;28;20469;-88
2023/07/07 01:24:35;;;;;;;12.18;5.80;;;;;;;;;;5058264;28;20032;-88
2023/07/07 01:27:16;;;;;;;13.27;6.10;;;;;;;;;;5059809;28;20040;-89
2023/07/07 01:29:51;;;;;;;10.85;5.40;;;;;;;;;;5078170;28;20038;-89
2023/07/07 01:32:25;;;;;;;16.48;5.63;;;;;;;;;;5060355;28;20039;-88
2023/07/07 01:35:05;;;;;;;;;;;;;;;;;;;;;
2023/07/07 01:37:38;;;;;;;12.02;6.05;;;;;;;;;;5078578;28;20370;-88
2023/07/07 01:40:05;;;;;;;13.20;6.28;;;;;;;;;;5048055;28;20024;-88
2023/07/07 01:42:36;;;;;;;10.65;5.72;;;;;;;;;;5044416;28;20028;-88
2023/07/07 01:45:39;;;;;;;10.60;5.85;;;;;;;;;;5055150;28;20040;-87
2023/07/07 01:48:18;;;;;;;11.35;5.82;;;;;;;;;;4996796;28;20030;-88
2023/07/07 01:51:04;;;;;;;10.10;5.75;;;;;;;;;;4975209;28;20038;-88
2023/07/07 01:53:40;;;;;;;13.45;7.07;;;;;;;;;;4991493;28;20066;-88
2023/07/07 01:56:09;;;;;;;16.85;7.15;;;;;;;;;;5018438;28;20477;-88
2023/07/07 01:58:46;;;;;;;19.25;6.90;;;;;;;;;;5078895;28;20029;-88
2023/07/07 02:01:12;;;;;;;11.32;5.95;;;;;;;;;;5059276;28;20477;-88
2023/07/07 02:03:41;;;;;;;13.80;6.60;;;;;;;;;;5060071;28;20076;-88
2023/07/07 02:06:07;;;;;;;9.10;6.35;;;;;;;;;;5058141;28;20088;-89
2023/07/07 02:08:33;;;;;;;16.30;5.63;;;;;;;;;;5043859;28;20032;-89
2023/07/07 02:11:06;;;;;;;11.95;6.75;;;;;;;;;;5046150;28;20115;-88
2023/07/07 02:13:36;;;;;;;13.18;7.05;;;;;;;;;;5046896;28;20041;-87
2023/07/07 02:16:04;;;;;;;15.30;6.57;;;;;;;;;;5060755;28;20042;-88
2023/07/07 02:18:30;;;;;;;15.02;6.68;;;;;;;;;;5057169;28;20024;-87
2023/07/07 02:20:59;;;;;;;10.98;6.70;;;;;;;;;;5060668;28;20033;-88
2023/07/07 02:23:25;;;;;;;11.55;6.07;;;;;;;;;;5040344;28;20033;-88
2023/07/07 02:25:52;;;;;;;13.15;6.68;;;;;;;;;;5045787;28;20048;-86
2023/07/07 02:28:18;;;;;;;11.60;6.07;;;;;;;;;;5044379;28;20045;-88
2023/07/07 02:30:46;;;;;;;9.35;5.90;;;;;;;;;;5041868;28;20029;-88
2023/07/07 02:33:17;;;;;;;12.40;6.57;;;;;;;;;;5041330;28;20335;-88
2023/07/07 02:35:48;;;;;;;;;;;;;;;;;;5057220;28;20036;-88
2023/07/07 02:38:15;;;;;;;12.63;6.28;;;;;;;;;;5058174;28;19983;-88
2023/07/07 02:40:42;;;;;;;10.13;5.82;;;;;;;;;;5059695;28;20020;-89
2023/07/07 02:43:09;;;;;;;12.88;7.25;;;;;;;;;;5042842;28;20456;-88
2023/07/07 02:45:40;;;;;;;19.23;7.38;;;;;;;;;;5045666;28;20575;-88
2023/07/07 02:48:10;;;;;;;14.40;6.57;;;;;;;;;;5057755;28;20028;-88
2023/07/07 02:50:36;;;;;;;16.83;7.25;;;;;;;;;;5040302;28;20117;-87
2023/07/07 02:53:03;;;;;;;17.02;7.85;;;;;;;;;;5055959;28;20032;-87
2023/07/07 02:55:33;;;;;;;14.23;6.93;;;;;;;;;;5055122;28;20020;-88
2023/07/07 02:58:01;;;;;;;14.20;7.65;;;;;;;;;;5058938;28;20084;-88
2023/07/07 03:00:28;;;;;;;18.27;8.27;;;;;;;;;;5046916;28;20036;-88
2023/07/07 03:02:54;;;;;;;19.45;7.75;;;;;;;;;;5047094;28;20142;-88
2023/07/07 03:05:22;;;;;;;18.80;8.35;;;;;;;;;;5052531;28;20040;-87
2023/07/07 03:07:48;;;;;;;19.58;8.10;;;;;;;;;;5065232;28;20117;-87
2023/07/07 03:10:21;;;;;;;18.35;7.43;;;;;;;;;;5062969;28;20021;-88
2023/07/07 03:12:53;;;;;;;15.60;8.18;;;;;;;;;;5043827;28;20043;-88
2023/07/07 03:15:22;;;;;;;14.98;8.00;;;;;;;;;;5044199;28;20492;-87
2023/07/07 03:17:49;;;;;;;12.88;7.13;;;;;;;;;;5043709;28;20021;-88
2023/07/07 03:20:16;;;;;;;14.80;7.45;;;;;;;;;;5059407;28;20021;-88
2023/07/07 03:23:08;;;;;;;19.15;7.63;;;;;;;;;;5039705;28;20123;-87
2023/07/07 03:25:35;;;;;;;13.88;7.35;;;;;;;;;;5052613;28;20102;-88
2023/07/07 03:28:08;;;;;;;21.98;8.95;;;;;;;;;;5048770;28;20621;-88
2023/07/07 03:30:34;;;;;;;19.77;8.40;;;;;;;;;;5045820;28;20047;-88
2023/07/07 03:33:01;;;;;;;14.65;8.15;;;;;;;;;;5046490;28;20032;-88
2023/07/07 03:35:31;;;;;;;14.45;7.95;;;;;;;;;;5047485;28;20043;-87
2023/07/07 03:38:01;;;;;;;19.42;8.45;;;;;;;;;;5046191;28;20032;-87
2023/07/07 03:40:32;;;;;;;18.23;8.70;;;;;;;;;;5046173;28;20028;-87
2023/07/07 03:42:59;;;;;;;16.60;9.45;;;;;;;;;;5059938;28;20044;-87
2023/07/07 03:45:29;;;;;;;14.32;8.75;;;;;;;;;;5062286;28;20502;-87
2023/07/07 03:47:58;;;;;;;22.92;10.02;;;;;;;;;;5063368;28;20029;-88
2023/07/07 03:50:28;;;;;;;18.05;9.32;;;;;;;;;;5045929;28;20096;-87
2023/07/07 03:52:55;;;;;;;22.83;10.60;;;;;;;;;;5060652;28;20039;-87
2023/07/07 03:55:25;;;;;;;18.15;9.95;;;;;;;;;;5043841;28;20055;-88
2023/07/07 03:57:58;;;;;;;19.20;8.85;;;;;;;;;;5043500;28;20025;-88
2023/07/07 04:00:29;;;;;;;21.50;10.07;;;;;;;;;;5055600;28;20051;-87
2023/07/07 04:02:55;;;;;;;21.70;11.20;;;;;;;;;;5044260;28;20400;-88
2023/07/07 04:05:23;;;;;;;24.67;12.07;;;;;;;;;;5043751;28;20049;-87
2023/07/07 04:07:49;;;;;;;22.45;12.10;;;;;;;;;;5041685;28;20021;-87
2023/07/07 04:10:37;;;;;;;29.95;13.27;;;;;;;;;;5043091;28;20220;-88
2023/07/07 04:13:03;;;;;;;28.58;14.13;;;;;;;;;;5025953;28;20041;-87
2023/07/07 04:15:35;;;;;;;28.30;12.55;;;;;;;;;;5058262;28;20087;-87
2023/07/07 04:18:02;;;;;;;27.88;14.13;;;;;;;;;;5043744;28;20232;-88
2023/07/07 04:20:34;;;;;;;27.67;13.68;;;;;;;;;;5028466;28;20036;-87
2023/07/07 04:23:00;;;;;;;27.27;12.43;;;;;;;;;;5054306;28;20048;-88
2023/07/07 04:25:32;;;;;;;32.13;13.63;;;;;;;;;;5046775;28;20103;-87
2023/07/07 04:30:55;;;;;;;29.75;14.43;;;;;;;;;;5047072;28;20055;-87
2023/07/07 04:33:23;;;;;;;28.48;14.00;;;;;;;;;;5025244;28;20026;-88
2023/07/07 04:36:04;;;;;;;26.55;13.05;;;;;;;;;;5041678;28;20086;-88
2023/07/07 04:38:52;;;;;;;;;;;;;;;;;;;;;
2023/07/07 04:41:28;;;;;;;24.33;12.32;;;;;;;;;;5057791;28;20115;-88
2023/07/07 04:43:56;;;;;;;39.15;15.35;;;;;;;;;;5044025;28;20025;-88
2023/07/07 04:46:37;;;;;;;33.08;14.10;;;;;;;;;;5044894;28;20052;-87
2023/07/07 04:49:06;;;;;;;27.38;14.95;;;;;;;;;;5042869;28;20036;-88
2023/07/07 04:51:38;;;;;;;29.92;13.85;;;;;;;;;;5046412;28;20049;-88
2023/07/07 04:54:14;;;;;;;29.30;13.73;;;;;;;;;;5041337;28;20093;-88
2023/07/07 04:56:43;;;;;;;29.40;15.03;;;;;;;;;;5041477;28;21548;-88
2023/07/07 04:59:20;;;;;;;32.25;14.00;;;;;;;;;;5059394;28;20029;-88
2023/07/07 05:01:47;;;;;;;25.20;12.25;;;;;;;;;;5058662;28;20009;-88
2023/07/07 05:04:15;;;;;;;25.98;11.82;;;;;;;;;;5052103;28;20111;-87
2023/07/07 05:06:47;;;;;;;25.85;10.65;;;;;;;;;;5064028;28;20039;-87
2023/07/07 05:09:14;;;;;;;23.20;11.35;;;;;;;;;;5058241;28;20057;-88
2023/07/07 05:11:41;;;;;;;22.63;10.73;;;;;;;;;;5039731;28;20032;-90
2023/07/07 05:14:09;;;;;;;20.38;10.30;;;;;;;;;;5037243;28;20036;-85
2023/07/07 05:16:37;;;;;;;21.02;10.23;;;;;;;;;;5036076;28;20044;-86
2023/07/07 05:19:07;;;;;;;25.45;10.38;;;;;;;;;;5052718;28;20043;-86
2023/07/07 05:21:36;;;;;;;20.67;9.88;;;;;;;;;;5047053;28;20066;-86
2023/07/07 05:24:05;;;;;;;20.42;10.55;;;;;;;;;;5070691;28;20392;-87
2023/07/07 05:26:38;;;;;;;23.17;9.50;;;;;;;;;;5050527;28;20020;-88
2023/07/07 05:29:10;;;;;;;22.67;11.25;;;;;;;;;;5049936;28;20028;-86
2023/07/07 05:31:59;;;;;;;20.90;9.50;;;;;;;;;;5076852;28;20052;-86
2023/07/07 05:34:27;;;;;;;26.40;10.60;;;;;;;;;;5042752;28;20028;-89
2023/07/07 05:36:56;;;;;;;20.00;10.00;;;;;;;;;;5058804;28;20436;-86
2023/07/07 05:39:22;;;;;;;29.73;10.98;;;;;;;;;;5042449;28;20035;-84
2023/07/07 05:41:51;;;;;;;21.65;8.75;;;;;;;;;;5038230;28;20033;-87
2023/07/07 05:44:17;;;;;;;24.05;8.98;;;;;;;;;;5057617;28;20047;-86
2023/07/07 05:46:43;;;;;;;16.13;9.38;;;;;;;;;;5040797;28;20032;-87
2023/07/07 05:49:29;;;;;;;17.30;10.02;;;;;;;;;;5041401;28;20070;-87
2023/07/07 05:52:01;;;;;;;20.65;10.68;;;;;;;;;;5057336;28;21091;-86
2023/07/07 05:54:51;;;;;;;19.48;9.10;;;;;;;;;;5061798;28;20047;-87
2023/07/07 05:57:17;;;;;;;15.50;9.38;;;;;;;;;;5042837;28;20041;-87
2023/07/07 05:59:44;;;;;;;19.40;9.25;;;;;;;;;;5057746;28;20028;-86
2023/07/07 06:02:11;;;;;;;17.15;9.38;;;;;;;;;;5042590;28;20535;-86
2023/07/07 06:04:37;;;;;;;14.82;8.77;;;;;;;;;;5078957;28;20040;-86
2023/07/07 06:07:03;;;;;;;15.88;8.85;;;;;;;;;;5039239;28;20068;-86
2023/07/07 06:09:30;;;;;;;18.73;9.90;;;;;;;;;;5046979;28;20060;-86
2023/07/07 06:11:56;;;;;;;13.02;8.45;;;;;;;;;;5043145;28;20194;-86
2023/07/07 06:14:23;;;;;;;16.33;8.40;;;;;;;;;;5046765;28;20032;-86
2023/07/07 06:16:49;;;;;;;13.40;8.05;;;;;;;;;;5059048;28;20044;-86
2023/07/07 06:19:15;;;;;;;22.92;8.45;;;;;;;;;;5043450;28;20025;-86
2023/07/07 06:21:43;;;;;;;17.88;8.27;;;;;;;;;;5061046;28;20426;-85
2023/07/07 06:24:09;;;;;;;15.55;8.57;;;;;;;;;;5045069;28;20025;-86
2023/07/07 06:26:36;;;;;;;18.67;8.10;;;;;;;;;;5057377;28;20097;-86
2023/07/07 06:29:02;;;;;;;23.40;8.43;;;;;;;;;;5058270;28;20036;-87
2023/07/07 06:31:28;;;;;;;19.05;8.60;;;;;;;;;;5041469;28;20067;-86
2023/07/07 06:34:01;;;;;;;13.00;8.20;;;;;;;;;;5040861;28;20112;-86
2023/07/07 06:36:30;;;;;;;;;;;;;;;;;;5079421;28;20062;-86
2023/07/07 06:38:56;;;;;;;16.17;8.07;;;;;;;;;;5060959;28;19939;-86
2023/07/07 06:41:35;;;;;;;16.88;6.85;;;;;;;;;;5045437;28;20070;-87
2023/07/07 06:44:05;;;;;;;17.73;6.72;;;;;;;;;;5067148;28;20033;-87
2023/07/07 06:46:31;;;;;;;17.20;7.53;;;;;;;;;;5060610;28;20713;-87
2023/07/07 06:48:59;;;;;;;13.60;6.78;;;;;;;;;;5043868;28;20036;-87
2023/07/07 06:51:25;;;;;;;10.65;6.65;;;;;;;;;;5049241;28;20092;-87
2023/07/07 06:53:51;;;;;;;10.65;6.45;;;;;;;;;;5044058;28;20061;-86
2023/07/07 06:56:17;;;;;;;16.20;6.35;;;;;;;;;;5065166;28;20038;-87
2023/07/07 06:58:56;;;;;;;9.45;5.03;;;;;;;;;;5044998;28;20032;-87
2023/07/07 07:01:25;;;;;;;11.77;6.18;;;;;;;;;;5058555;28;20564;-86
2023/07/07 07:03:54;;;;;;;14.15;5.95;;;;;;;;;;5046695;28;20132;-86
2023/07/07 07:06:20;;;;;;;10.50;5.70;;;;;;;;;;5042799;28;20025;-87
2023/07/07 07:09:38;;;;;;;17.90;5.88;;;;;;;;;;5058594;28;20508;-86
2023/07/07 07:11:45;;;;;;;10.80;5.10;;;;;;;;;;5064882;28;20048;-87
2023/07/07 07:14:14;;;;;;;16.45;5.97;;;;;;;;;;5045942;28;20385;-87
2023/07/07 07:16:40;;;;;;;13.32;5.10;;;;;;;;;;5044240;28;20032;-86
2023/07/07 07:19:06;;;;;;;10.35;5.25;;;;;;;;;;5057361;28;20347;-85
2023/07/07 07:21:33;;;;;;;10.80;5.88;;;;;;;;;;5039019;28;20837;-86
2023/07/07 07:24:06;;;;;;;10.52;4.97;;;;;;;;;;5058879;28;20029;-86
2023/07/07 07:26:37;;;;;;;8.20;4.53;;;;;;;;;;5057794;28;20419;-85
2023/07/07 07:29:07;;;;;;;12.68;4.95;;;;;;;;;;5055119;28;20127;-86
2023/07/07 07:31:33;;;;;;;7.45;4.63;;;;;;;;;;5043959;28;20492;-87
2023/07/07 07:34:22;;;;;;;7.90;4.32;;;;;;;;;;5039380;28;20036;-86
2023/07/07 07:36:48;;;;;;;8.18;4.97;;;;;;;;;;5044307;28;20020;-86
2023/07/07 07:39:15;;;;;;;7.90;4.07;;;;;;;;;;5057236;28;20017;-86
2023/07/07 07:41:42;;;;;;;7.32;4.47;;;;;;;;;;5062594;28;20044;-86
2023/07/07 07:44:15;;;;;;;15.40;4.10;;;;;;;;;;5051593;28;20017;-86
2023/07/07 07:46:45;;;;;;;11.40;3.75;;;;;;;;;;5059383;28;20033;-87
2023/07/07 07:49:18;;;;;;;5.55;3.33;;;;;;;;;;5055165;28;20844;-86
2023/07/07 07:51:47;;;;;;;6.90;3.35;;;;;;;;;;5056550;28;20058;-86
2023/07/07 07:54:15;;;;;;;11.55;3.70;;;;;;;;;;5051709;28;20370;-86
2023/07/07 07:57:12;;;;;;;4.78;3.00;;;;;;;;;;5054436;28;20459;-86
2023/07/07 07:59:39;;;;;;;7.75;3.33;;;;;;;;;;5031879;28;20052;-86
2023/07/07 08:02:15;;;;;;;6.63;3.30;;;;;;;;;;5053153;28;20055;-86
2023/07/07 08:04:42;;;;;;;9.57;3.92;;;;;;;;;;5056338;28;20041;-86
2023/07/07 08:07:08;;;;;;;7.93;3.05;;;;;;;;;;5056165;28;20052;-88
2023/07/07 08:09:34;;;;;;;10.35;3.05;;;;;;;;;;5043951;28;20037;-87
2023/07/07 08:12:04;;;;;;;11.35;3.00;;;;;;;;;;5046317;28;20029;-86
2023/07/07 08:14:35;;;;;;;7.25;2.80;;;;;;;;;;5039983;28;20609;-87
2023/07/07 08:17:04;;;;;;;5.75;2.97;;;;;;;;;;5055637;28;20033;-86
2023/07/07 08:19:34;;;;;;;4.28;2.95;;;;;;;;;;5043148;28;20096;-86
2023/07/07 08:22:01;;;;;;;7.75;3.05;;;;;;;;;;5040377;28;20041;-87
2023/07/07 08:24:27;;;;;;;8.98;2.97;;;;;;;;;;5038914;28;20025;-88
2023/07/07 08:27:14;;;;;;;7.00;3.08;;;;;;;;;;5053489;28;20048;-87
2023/07/07 08:29:40;;;;;;;13.05;2.72;;;;;;;;;;5056004;28;20028;-87
2023/07/07 08:32:13;;;;;;;5.15;2.80;;;;;;;;;;5057443;28;20040;-86
2023/07/07 08:34:40;;;;;;;4.07;2.80;;;;;;;;;;5064816;28;20420;-86
2023/07/07 08:37:15;;;;;;;10.80;2.95;;;;;;;;;;5070693;28;20535;-87
2023/07/07 08:39:42;;;;;;;5.43;2.63;;;;;;;;;;5056856;28;20121;-86
2023/07/07 08:42:27;;;;;;;5.35;2.70;;;;;;;;;;5057202;28;20051;-87
2023/07/07 08:44:55;;;;;;;7.10;3.17;;;;;;;;;;5061610;28;20025;-88
2023/07/07 08:47:33;;;;;;;9.02;2.70;;;;;;;;;;5038075;28;20049;-88
2023/07/07 08:50:08;;;;;;;7.38;3.13;;;;;;;;;;5014500;28;20107;-87
2023/07/07 08:53:19;;;;;;;5.95;2.72;;;;;;;;;;5018301;28;20052;-87
2023/07/07 08:55:41;;;;;;;7.45;3.13;;;;;;;;;;5012230;28;20034;-86
2023/07/07 08:58:14;;;;;;;3.78;2.50;;;;;;;;;;5036798;28;20029;-87
2023/07/07 09:00:59;;;;;;;4.45;2.78;;;;;;;;;;5018970;28;20561;-87
2023/07/07 09:03:45;;;;;;;7.43;2.67;;;;;;;;;;5033154;28;20034;-87
2023/07/07 09:06:38;;;;;;;5.20;2.40;;;;;;;;;;5040369;28;20072;-87
2023/07/07 09:09:25;;;;;;;3.20;2.22;;;;;;;;;;5039102;28;20030;-87
2023/07/07 09:12:12;;;;;;;9.98;2.80;;;;;;;;;;5046194;28;20053;-87
2023/07/07 09:15:04;;;;;;;;;;;;;;;;;;;;;
2023/07/07 09:17:43;;;;;;;6.40;2.65;;;;;;;;;;5051840;28;20071;-86
2023/07/07 09:20:30;;;;;;;8.60;2.70;;;;;;;;;;5065940;28;20035;-85
2023/07/07 09:23:04;;;;;;;7.05;2.85;;;;;;;;;;5060263;28;20159;-87
2023/07/07 09:25:43;;;;;;;3.85;2.58;;;;;;;;;;5065069;28;20045;-87
2023/07/07 09:28:29;;;;;;;7.13;2.38;;;;;;;;;;5047157;28;20710;-87
2023/07/07 09:30:58;;;;;;;5.40;2.53;;;;;;;;;;5066546;28;20032;-86
2023/07/07 09:33:40;;;;;;;6.00;2.53;;;;;;;;;;5082788;28;20025;-87
2023/07/07 09:36:25;;;;;;;5.90;2.42;;;;;;;;;;5066637;28;20058;-88
2023/07/07 09:38:57;;;;;;;5.50;2.60;;;;;;;;;;5066002;28;20023;-88
2023/07/07 09:41:40;;;;;;;2.72;2.30;;;;;;;;;;5064994;28;20293;-88
2023/07/07 09:44:18;;;;;;;4.10;2.70;;;;;;;;;;5066522;28;20033;-88
2023/07/07 09:46:54;;;;;;;5.25;4.22;;;;;;;;;;5058179;28;20096;-88
2023/07/07 09:49:56;;;;;;;;;;;;;;;;;;;;;
2023/07/07 09:52:36;;;;;;;6.60;2.88;;;;;;;;;;5084821;28;20111;-89
2023/07/07 09:55:09;;;;;;;3.25;2.40;;;;;;;;;;5060396;28;20082;-88
2023/07/07 09:57:41;;;;;;;3.72;2.40;;;;;;;;;;5043603;28;20035;-87
2023/07/07 10:00:13;;;;;;;7.05;2.40;;;;;;;;;;5063498;28;20024;-88
2023/07/07 10:05:34;;;;;;;4.40;2.20;;;;;;;;;;5080975;27;20075;-88
2023/07/07 10:08:03;;;;;;;5.57;2.65;;;;;;;;;;5052210;28;20314;-87
2023/07/07 10:10:29;;;;;;;4.30;2.47;;;;;;;;;;5042909;28;20112;-88
2023/07/07 10:12:59;;;;;;;5.78;2.38;;;;;;;;;;5079180;28;20054;-88
2023/07/07 10:15:28;;;;;;;4.45;2.33;;;;;;;;;;5037008;28;20044;-88
2023/07/07 10:17:56;;;;;;;3.90;2.65;;;;;;;;;;5060733;28;20443;-88
2023/07/07 10:20:25;;;;;;;2.83;2.28;;;;;;;;;;5056913;28;20029;-88
2023/07/07 10:22:56;;;;;;;3.85;2.50;;;;;;;;;;5045409;28;20047;-88
2023/07/07 10:25:24;;;;;;;4.95;2.55;;;;;;;;;;5065346;28;20024;-88
2023/07/07 10:27:54;;;;;;;3.20;2.80;;;;;;;;;;5058482;28;20060;-88
2023/07/07 10:30:22;;;;;;;4.07;2.20;;;;;;;;;;5046261;28;20052;-88
2023/07/07 10:32:48;;;;;;;5.05;2.42;;;;;;;;;;5044295;28;20040;-88
2023/07/07 10:35:18;;;;;;;4.85;2.35;;;;;;;;;;5062236;28;20021;-88
2023/07/07 10:37:50;;;;;;;3.58;2.20;;;;;;;;;;5055648;28;20021;-89
2023/07/07 10:40:25;;;;;;;3.42;2.30;;;;;;;;;;5060338;28;20032;-88
2023/07/07 10:42:53;;;;;;;3.92;2.42;;;;;;;;;;5063680;28;20047;-88
2023/07/07 10:45:22;;;;;;;3.85;2.38;;;;;;;;;;5051858;28;20040;-87
2023/07/07 10:47:49;;;;;;;5.05;2.33;;;;;;;;;;5055346;28;20469;-88
2023/07/07 10:50:25;;;;;;;10.15;3.13;;;;;;;;;;5043349;28;20137;-88
2023/07/07 10:52:55;;;;;;;5.90;2.60;;;;;;;;;;5068892;28;20036;-87
2023/07/07 10:55:36;;;;;;;10.68;2.83;;;;;;;;;;5078433;28;20059;-88
2023/07/07 10:58:21;;;;;;;6.93;2.67;;;;;;;;;;5061858;28;20079;-87
2023/07/07 11:01:06;;;;;;;4.68;2.65;;;;;;;;;;5060545;28;20036;-88
2023/07/07 11:03:51;;;;;;;5.78;2.55;;;;;;;;;;5059171;28;20032;-88
2023/07/07 11:06:36;;;;;;;5.18;2.40;;;;;;;;;;5074312;27;20053;-88
2023/07/07 11:09:18;;;;;;;7.53;2.78;;;;;;;;;;5060045;28;20032;-88
2023/07/07 11:12:10;;;;;;;3.72;2.67;;;;;;;;;;5061575;28;20050;-88
2023/07/07 11:14:39;;;;;;;4.20;2.60;;;;;;;;;;5058041;28;20365;-87
2023/07/07 11:17:12;;;;;;;8.10;2.45;;;;;;;;;;5065264;28;20043;-88
2023/07/07 11:20:00;;;;;;;4.80;2.72;;;;;;;;;;5062218;28;20056;-87
2023/07/07 11:22:36;;;;;;;3.58;2.20;;;;;;;;;;5079500;28;20057;-87
2023/07/07 11:25:20;;;;;;;7.60;2.47;;;;;;;;;;5062253;28;20033;-87
2023/07/07 11:28:03;;;;;;;4.55;2.63;;;;;;;;;;5064448;28;20217;-88
2023/07/07 11:30:48;;;;;;;7.00;3.17;;;;;;;;;;5059032;28;20490;-88
2023/07/07 11:33:29;;;;;;;;;;;;;;;;;;;;;
2023/07/07 11:36:24;;;;;;;4.85;2.60;;;;;;;;;;5079461;28;20096;-88
2023/07/07 11:42:12;;;;;;;5.57;2.88;;;;;;;;;;5062667;28;20047;-88
2023/07/07 11:44:56;;;;;;;3.90;2.53;;;;;;;;;;5052393;28;20029;-89
2023/07/07 11:47:41;;;;;;;5.95;2.75;;;;;;;;;;5057357;28;20142;-89
2023/07/07 11:50:27;;;;;;;4.20;2.58;;;;;;;;;;5062561;28;20036;-88
2023/07/07 11:53:12;;;;;;;8.05;2.70;;;;;;;;;;5057083;28;20124;-88
2023/07/07 11:56:05;;;;;;;3.38;2.53;;;;;;;;;;5060415;28;20100;-89
2023/07/07 11:59:00;;;;;;;3.55;2.35;;;;;;;;;;5077946;28;20052;-89
2023/07/07 12:01:38;;;;;;;3.75;2.75;;;;;;;;;;5079176;28;20032;-88
2023/07/07 12:04:11;;;;;;;6.57;3.47;;;;;;;;;;5056996;28;20044;-89
2023/07/07 12:06:45;;;;;;;4.35;2.40;;;;;;;;;;5051778;28;20489;-87
2023/07/07 12:09:44;;;;;;;5.80;2.60;;;;;;;;;;5075449;28;20037;-87
2023/07/07 12:12:55;;;;;;;3.97;2.90;;;;;;;;;;5037647;28;20404;-87
2023/07/07 12:18:39;;;;;;;5.15;2.83;;;;;;;;;;5003838;28;20134;-90
2023/07/07 12:21:12;;;;;;;4.07;2.40;;;;;;;;;;5049207;28;20036;-87
2023/07/07 12:23:39;;;;;;;10.65;2.35;;;;;;;;;;5041892;28;20441;-87
2023/07/07 12:26:13;;;;;;;5.53;2.90;;;;;;;;;;5043337;28;20044;-89
2023/07/07 12:28:40;;;;;;;3.97;3.00;;;;;;;;;;5065719;28;20024;-88
2023/07/07 12:31:06;;;;;;;5.05;2.80;;;;;;;;;;5044529;28;20593;-88
2023/07/07 12:33:40;;;;;;;6.70;2.65;;;;;;;;;;5038622;28;20035;-88
2023/07/07 12:36:07;;;;;;;3.72;2.45;;;;;;;;;;5050022;28;20028;-87
2023/07/07 12:38:35;;;;;;;2.90;2.08;;;;;;;;;;5043983;28;20327;-87
2023/07/07 12:41:11;;;;;;;6.93;2.92;;;;;;;;;;5050198;28;20825;-87
2023/07/07 12:43:51;;;;;;;6.18;2.58;;;;;;;;;;5048467;28;20038;-87
2023/07/07 12:46:17;;;;;;;3.83;2.42;;;;;;;;;;5046047;28;20032;-87
2023/07/07 12:48:48;;;;;;;4.47;2.40;;;;;;;;;;5047379;28;20051;-87
2023/07/07 12:51:16;;;;;;;5.40;3.17;;;;;;;;;;5043639;28;20448;-87
2023/07/07 12:53:45;;;;;;;4.15;2.60;;;;;;;;;;5060515;28;20056;-88
2023/07/07 12:56:12;;;;;;;5.75;2.65;;;;;;;;;;5049869;28;20128;-87
2023/07/07 12:58:43;;;;;;;4.10;2.97;;;;;;;;;;5041987;28;20025;-87
2023/07/07 13:01:15;;;;;;;4.55;2.72;;;;;;;;;;5046849;28;20028;-87
2023/07/07 13:04:02;;;;;;;3.70;3.08;;;;;;;;;;5067169;28;20649;-88
2023/07/07 13:06:31;;;;;;;4.63;2.65;;;;;;;;;;5025892;28;20140;-88
2023/07/07 13:09:03;;;;;;;5.28;3.00;;;;;;;;;;5021482;28;20043;-87
2023/07/07 13:11:39;;;;;;;5.63;2.90;;;;;;;;;;5026162;28;20468;-87
2023/07/07 13:14:06;;;;;;;3.92;2.60;;;;;;;;;;5027392;28;20041;-87
2023/07/07 13:16:33;;;;;;;6.75;3.08;;;;;;;;;;5045073;28;20033;-87
2023/07/07 13:19:00;;;;;;;4.60;2.65;;;;;;;;;;5024875;28;20045;-87
2023/07/07 13:21:30;;;;;;;3.83;2.60;;;;;;;;;;5029364;28;20025;-87
2023/07/07 13:23:57;;;;;;;3.45;2.72;;;;;;;;;;5028937;28;20033;-87
2023/07/07 13:26:24;;;;;;;3.90;2.40;;;;;;;;;;5023542;28;20128;-87
2023/07/07 13:28:50;;;;;;;4.63;2.60;;;;;;;;;;5009226;28;20481;-87
2023/07/07 13:31:16;;;;;;;3.70;2.47;;;;;;;;;;5043947;28;20162;-87
2023/07/07 13:33:42;;;;;;;6.13;2.60;;;;;;;;;;5012933;28;20140;-87
2023/07/07 13:36:09;;;;;;;5.60;3.17;;;;;;;;;;5024676;28;20025;-87
2023/07/07 13:38:39;;;;;;;4.45;3.13;;;;;;;;;;5042815;28;20033;-87
2023/07/07 13:41:08;;;;;;;4.10;2.55;;;;;;;;;;5024069;28;20118;-86
2023/07/07 13:43:53;;;;;;;3.83;2.60;;;;;;;;;;5027014;28;20029;-87
2023/07/07 13:46:30;;;;;;;5.22;2.72;;;;;;;;;;5026655;28;20241;-86
2023/07/07 13:49:06;;;;;;;5.00;2.65;;;;;;;;;;5027520;28;20028;-87
2023/07/07 13:51:32;;;;;;;3.97;2.45;;;;;;;;;;5027591;28;20481;-87
2023/07/07 13:53:59;;;;;;;3.78;2.35;;;;;;;;;;5024777;28;20036;-87
2023/07/07 13:56:26;;;;;;;6.32;2.90;;;;;;;;;;5025929;28;20030;-87
2023/07/07 13:58:53;;;;;;;6.38;2.45;;;;;;;;;;5028878;28;20040;-87
2023/07/07 14:01:27;;;;;;;3.22;2.50;;;;;;;;;;5026212;28;20473;-87
2023/07/07 14:03:54;;;;;;;7.05;2.78;;;;;;;;;;5025386;28;20116;-86
2023/07/07 14:06:21;;;;;;;4.57;2.40;;;;;;;;;;5056704;28;20538;-87
2023/07/07 14:08:47;;;;;;;3.90;3.00;;;;;;;;;;5046457;28;20115;-87
2023/07/07 14:11:25;;;;;;;3.50;2.60;;;;;;;;;;5033215;28;20048;-87
2023/07/07 14:13:53;;;;;;;4.65;2.95;;;;;;;;;;5044559;28;20071;-87
2023/07/07 14:16:22;;;;;;;6.28;3.17;;;;;;;;;;5029407;28;20146;-86
2023/07/07 14:18:51;;;;;;;4.90;3.10;;;;;;;;;;5049002;28;20520;-87
2023/07/07 14:21:21;;;;;;;5.75;3.28;;;;;;;;;;5044631;28;20218;-87
2023/07/07 14:23:50;;;;;;;6.32;2.85;;;;;;;;;;5045946;28;20059;-87
2023/07/07 14:26:17;;;;;;;4.97;3.00;;;;;;;;;;5037381;28;20068;-89
2023/07/07 14:28:44;;;;;;;4.80;2.45;;;;;;;;;;5040310;28;20033;-87
2023/07/07 14:31:11;;;;;;;6.45;3.20;;;;;;;;;;5042166;28;20488;-87
2023/07/07 14:33:45;;;;;;;3.55;2.80;;;;;;;;;;5039357;28;20086;-86
2023/07/07 14:36:34;;;;;;;8.02;2.80;;;;;;;;;;5046302;28;20087;-89
2023/07/07 14:39:07;;;;;;;3.25;2.70;;;;;;;;;;5045096;28;20033;-92
2023/07/07 14:41:35;;;;;;;6.72;2.45;;;;;;;;;;5045318;28;20060;-88
2023/07/07 14:44:01;;;;;;;4.38;2.40;;;;;;;;;;5041264;28;20025;-86
2023/07/07 14:46:35;;;;;;;4.82;2.80;;;;;;;;;;5025286;28;20029;-84
2023/07/07 14:49:15;;;;;;;4.83;2.67;;;;;;;;;;5061452;28;20540;-89
2023/07/07 14:51:43;;;;;;;4.78;2.90;;;;;;;;;;5059970;28;20110;-93
2023/07/07 14:54:16;;;;;;;7.95;2.50;;;;;;;;;;5057941;28;20135;-90
2023/07/07 14:57:06;;;;;;;8.02;2.90;;;;;;;;;;5046133;28;20082;-91
2023/07/07 14:59:33;;;;;;;5.50;2.58;;;;;;;;;;5045665;28;20029;-91
2023/07/07 15:02:02;;;;;;;7.70;2.63;;;;;;;;;;5043722;28;20083;-90
2023/07/07 15:04:32;;;;;;;3.30;2.35;;;;;;;;;;5056659;28;20132;-90
2023/07/07 15:06:59;;;;;;;3.65;2.60;;;;;;;;;;5044474;28;20040;-89
2023/07/07 15:09:25;;;;;;;5.43;2.80;;;;;;;;;;5043305;28;20029;-92
2023/07/07 15:11:52;;;;;;;4.30;2.30;;;;;;;;;;5047676;28;20484;-91
2023/07/07 15:14:18;;;;;;;5.15;3.10;;;;;;;;;;5031350;28;20485;-91
2023/07/07 15:16:44;;;;;;;4.60;2.83;;;;;;;;;;5033369;28;20051;-92
2023/07/07 15:19:21;;;;;;;5.47;2.80;;;;;;;;;;5046595;28;20020;-91
2023/07/07 15:21:47;;;;;;;3.70;2.70;;;;;;;;;;5039605;28;20232;-92
2023/07/07 15:24:14;;;;;;;3.42;2.63;;;;;;;;;;5061304;28;20028;-91